Time;durP1;ratioP1;P1;durP2;ratioP2;P2;SDS_P1;SDS_P2;PMS_P1;PMS_P2;Temp;Humidity;BMP_temperature;BMP_pressure;BME280_temperature;BME280_humidity;BME280_pressure;Samples;Min_cycle;Max_cycle;Signal;HPM_P1;HPM_P2
2023/07/30 00:02:56;;;;;;;2.40;1.88;;;;;;;;;;10196294;29;20036;-86
2023/07/30 00:07:57;;;;;;;3.42;2.10;;;;;;;;;;10198812;29;20703;-85
2023/07/30 00:12:58;;;;;;;1.85;1.52;;;;;;;;;;10197645;29;20071;-83
2023/07/30 00:17:59;;;;;;;5.13;2.03;;;;;;;;;;10185324;29;20061;-83
2023/07/30 00:23:00;;;;;;;2.55;1.70;;;;;;;;;;10201546;29;20035;-83
2023/07/30 00:28:01;;;;;;;1.88;1.73;;;;;;;;;;10181192;29;20039;-83
2023/07/30 00:33:02;;;;;;;4.05;2.78;;;;;;;;;;10194640;29;20066;-84
2023/07/30 00:38:03;;;;;;;6.50;2.70;;;;;;;;;;10191809;29;20044;-83
2023/07/30 00:43:04;;;;;;;6.50;3.40;;;;;;;;;;10194952;29;20036;-84
2023/07/30 00:48:05;;;;;;;3.90;2.65;;;;;;;;;;10198449;29;20040;-85
2023/07/30 00:53:08;;;;;;;4.43;2.45;;;;;;;;;;10183442;29;20031;-84
2023/07/30 00:58:10;;;;;;;4.60;2.75;;;;;;;;;;10190999;29;20043;-86
2023/07/30 01:03:11;;;;;;;5.00;2.28;;;;;;;;;;10184538;29;20032;-85
2023/07/30 01:08:12;;;;;;;3.13;2.33;;;;;;;;;;10172591;29;20489;-85
2023/07/30 01:13:14;;;;;;;3.55;1.92;;;;;;;;;;10181157;29;20039;-85
2023/07/30 01:18:15;;;;;;;3.75;1.73;;;;;;;;;;10180071;29;20053;-85
2023/07/30 01:23:15;;;;;;;4.88;1.70;;;;;;;;;;10197669;29;20492;-85
2023/07/30 01:28:18;;;;;;;3.60;1.67;;;;;;;;;;10197603;29;20095;-85
2023/07/30 01:33:19;;;;;;;4.43;2.00;;;;;;;;;;10181015;29;20036;-86
2023/07/30 01:38:20;;;;;;;3.58;1.73;;;;;;;;;;10173308;29;20059;-85
2023/07/30 01:43:21;;;;;;;4.68;1.63;;;;;;;;;;10193316;29;20040;-85
2023/07/30 01:48:22;;;;;;;2.05;1.63;;;;;;;;;;10185638;29;20102;-86
2023/07/30 01:53:23;;;;;;;4.25;2.03;;;;;;;;;;10184800;29;20036;-85
2023/07/30 01:58:24;;;;;;;4.57;2.05;;;;;;;;;;10185677;29;20118;-86
2023/07/30 02:03:25;;;;;;;3.08;1.80;;;;;;;;;;10189217;29;20050;-86
2023/07/30 02:08:26;;;;;;;4.38;1.90;;;;;;;;;;10191793;29;20039;-86
2023/07/30 02:13:27;;;;;;;2.13;1.90;;;;;;;;;;10172844;29;20403;-85
2023/07/30 02:18:28;;;;;;;3.53;2.15;;;;;;;;;;10180421;29;20486;-85
2023/07/30 02:23:29;;;;;;;2.17;1.70;;;;;;;;;;10190727;29;20051;-86
2023/07/30 02:28:30;;;;;;;2.97;2.03;;;;;;;;;;10202544;29;20581;-86
2023/07/30 02:33:31;;;;;;;2.88;1.90;;;;;;;;;;10191014;29;20039;-85
2023/07/30 02:38:32;;;;;;;4.47;2.33;;;;;;;;;;10198748;29;20036;-86
2023/07/30 02:43:33;;;;;;;3.03;2.15;;;;;;;;;;10196012;29;20426;-86
2023/07/30 02:48:34;;;;;;;3.03;2.30;;;;;;;;;;10189019;29;20028;-85
2023/07/30 02:53:35;;;;;;;3.10;2.00;;;;;;;;;;10206753;29;20611;-85
2023/07/30 02:58:36;;;;;;;5.03;2.58;;;;;;;;;;10207777;29;20559;-85
2023/07/30 03:03:37;;;;;;;4.20;2.30;;;;;;;;;;10182512;29;20100;-85
2023/07/30 03:08:38;;;;;;;3.83;2.50;;;;;;;;;;10182978;29;20684;-85
2023/07/30 03:13:39;;;;;;;6.25;2.22;;;;;;;;;;10205636;29;20071;-84
2023/07/30 03:18:40;;;;;;;3.05;2.28;;;;;;;;;;10195308;29;20048;-84
2023/07/30 03:23:44;;;;;;;3.75;2.50;;;;;;;;;;10189418;29;20040;-87
2023/07/30 03:28:45;;;;;;;10.52;3.08;;;;;;;;;;10203463;29;20042;-86
2023/07/30 03:33:46;;;;;;;6.07;3.10;;;;;;;;;;10189385;29;20685;-84
2023/07/30 03:38:47;;;;;;;7.60;3.15;;;;;;;;;;10203212;29;20083;-85
2023/07/30 03:43:48;;;;;;;3.35;2.50;;;;;;;;;;10180240;29;20544;-86
2023/07/30 03:48:49;;;;;;;3.80;2.65;;;;;;;;;;10183359;29;20047;-87
2023/07/30 03:53:50;;;;;;;4.63;3.03;;;;;;;;;;10190417;29;20594;-86
2023/07/30 03:58:51;;;;;;;9.20;3.80;;;;;;;;;;10196557;29;20085;-83
2023/07/30 04:03:52;;;;;;;6.35;2.80;;;;;;;;;;10180955;29;20044;-89
2023/07/30 04:08:53;;;;;;;6.38;3.50;;;;;;;;;;10189846;29;20557;-88
2023/07/30 04:13:54;;;;;;;9.15;3.83;;;;;;;;;;10183041;29;20032;-87
2023/07/30 04:18:55;;;;;;;4.13;3.10;;;;;;;;;;10179163;29;20048;-85
2023/07/30 04:23:56;;;;;;;6.55;3.80;;;;;;;;;;10177727;29;20871;-88
2023/07/30 04:28:57;;;;;;;7.00;4.07;;;;;;;;;;10181767;29;20079;-87
2023/07/30 04:33:58;;;;;;;6.68;4.22;;;;;;;;;;10174186;29;20028;-88
2023/07/30 04:38:59;;;;;;;6.63;5.03;;;;;;;;;;10188052;29;20380;-87
2023/07/30 04:44:00;;;;;;;5.65;3.90;;;;;;;;;;10168741;29;20036;-86
2023/07/30 04:49:04;;;;;;;7.32;4.30;;;;;;;;;;10179513;29;20042;-85
2023/07/30 04:54:05;;;;;;;5.32;3.25;;;;;;;;;;10189540;29;20476;-86
2023/07/30 04:59:06;;;;;;;3.72;2.78;;;;;;;;;;10196130;29;20024;-86
2023/07/30 05:04:07;;;;;;;4.10;2.72;;;;;;;;;;10186660;29;20545;-87
2023/07/30 05:09:08;;;;;;;6.32;2.40;;;;;;;;;;10201239;29;20046;-86
2023/07/30 05:14:09;;;;;;;5.18;2.35;;;;;;;;;;10203378;29;20035;-86
2023/07/30 05:19:10;;;;;;;3.95;2.20;;;;;;;;;;10197767;29;20518;-85
2023/07/30 05:24:18;;;;;;;3.22;1.92;;;;;;;;;;10563161;27;20906;-87
2023/07/30 05:29:19;;;;;;;4.40;2.00;;;;;;;;;;10558393;28;20028;-86
2023/07/30 05:34:20;;;;;;;4.18;1.98;;;;;;;;;;10544191;28;20433;-86
2023/07/30 05:39:21;;;;;;;3.35;1.60;;;;;;;;;;10548470;28;20035;-86
2023/07/30 05:44:22;;;;;;;2.97;2.10;;;;;;;;;;10539129;28;20028;-85
2023/07/30 05:49:23;;;;;;;3.85;1.92;;;;;;;;;;10559859;28;20028;-86
2023/07/30 05:54:24;;;;;;;4.32;1.98;;;;;;;;;;10545268;28;20036;-85
2023/07/30 05:59:25;;;;;;;2.05;1.60;;;;;;;;;;10559487;28;20028;-87
2023/07/30 06:04:26;;;;;;;2.55;1.73;;;;;;;;;;10562347;28;20036;-86
2023/07/30 06:09:27;;;;;;;2.53;1.85;;;;;;;;;;10551164;28;20761;-86
2023/07/30 06:14:28;;;;;;;2.22;1.63;;;;;;;;;;10561733;28;20028;-87
2023/07/30 06:19:29;;;;;;;4.22;1.80;;;;;;;;;;10521572;28;20021;-87
2023/07/30 06:24:30;;;;;;;6.40;2.22;;;;;;;;;;10543112;28;20024;-84
2023/07/30 06:29:31;;;;;;;3.00;2.13;;;;;;;;;;10527224;28;20032;-83
2023/07/30 06:34:33;;;;;;;2.95;2.03;;;;;;;;;;10538310;28;20040;-84
2023/07/30 06:39:34;;;;;;;3.72;2.17;;;;;;;;;;10508517;28;20039;-83
2023/07/30 06:44:35;;;;;;;5.80;3.08;;;;;;;;;;10480441;28;20501;-83
2023/07/30 06:49:36;;;;;;;3.95;2.20;;;;;;;;;;10475718;28;20027;-83
2023/07/30 06:54:37;;;;;;;6.38;4.07;;;;;;;;;;10505848;28;20514;-82
2023/07/30 06:59:38;;;;;;;4.18;2.05;;;;;;;;;;10496609;28;20035;-82
2023/07/30 07:04:40;;;;;;;5.40;3.33;;;;;;;;;;10507830;28;20032;-84
2023/07/30 07:09:41;;;;;;;4.10;2.78;;;;;;;;;;10480201;28;20021;-82
2023/07/30 07:14:43;;;;;;;2.45;1.90;;;;;;;;;;10481208;28;20028;-83
2023/07/30 07:19:44;;;;;;;2.25;1.80;;;;;;;;;;10472313;28;20095;-83
2023/07/30 07:24:45;;;;;;;4.00;1.90;;;;;;;;;;10475588;28;20035;-84
2023/07/30 07:29:46;;;;;;;3.05;1.80;;;;;;;;;;10486415;28;20082;-85
2023/07/30 07:34:48;;;;;;;3.83;2.13;;;;;;;;;;10505134;28;20133;-85
2023/07/30 07:39:49;;;;;;;3.83;2.30;;;;;;;;;;10475527;28;20028;-87
2023/07/30 07:44:50;;;;;;;7.38;4.10;;;;;;;;;;10498613;28;20058;-85
2023/07/30 07:49:51;;;;;;;2.40;1.98;;;;;;;;;;10507125;28;20096;-85
2023/07/30 07:54:52;;;;;;;2.35;1.98;;;;;;;;;;10499711;28;20024;-86
2023/07/30 07:59:53;;;;;;;4.97;2.30;;;;;;;;;;10483840;28;20479;-85
2023/07/30 08:04:54;;;;;;;3.70;2.00;;;;;;;;;;10481574;28;20020;-83
2023/07/30 08:09:55;;;;;;;1.90;1.70;;;;;;;;;;10477038;28;20118;-86
2023/07/30 08:14:56;;;;;;;3.28;2.30;;;;;;;;;;10483005;28;20029;-86
2023/07/30 08:19:57;;;;;;;2.35;2.00;;;;;;;;;;10489342;28;20465;-84
2023/07/30 08:24:58;;;;;;;2.08;1.80;;;;;;;;;;10469513;28;20024;-85
2023/07/30 08:29:59;;;;;;;2.10;1.85;;;;;;;;;;10478429;28;20039;-84
2023/07/30 08:35:00;;;;;;;2.45;2.08;;;;;;;;;;10485739;28;20032;-85
2023/07/30 08:40:01;;;;;;;3.45;1.88;;;;;;;;;;10486542;28;20028;-85
2023/07/30 08:45:06;;;;;;;1.98;1.80;;;;;;;;;;10504104;28;20114;-86
2023/07/30 08:50:08;;;;;;;4.30;1.65;;;;;;;;;;10496870;28;20020;-85
2023/07/30 08:55:09;;;;;;;2.28;1.80;;;;;;;;;;10497752;28;20017;-84
2023/07/30 09:00:10;;;;;;;1.98;1.77;;;;;;;;;;10514867;28;20039;-84
2023/07/30 09:05:30;;;;;;;2.50;2.03;;;;;;;;;;10508457;28;20028;-84
2023/07/30 09:10:31;;;;;;;2.85;2.00;;;;;;;;;;10519003;28;20097;-84
2023/07/30 09:26:23;;;;;;;2.05;1.88;;;;;;;;;;11954857;24;20027;-83
2023/07/30 09:31:24;;;;;;;2.58;1.80;;;;;;;;;;9896656;29;20139;-84
2023/07/30 09:36:25;;;;;;;2.05;1.80;;;;;;;;;;9907204;29;20781;-84
2023/07/30 10:09:43;;;;;;;3.83;2.67;;;;;;;;;;10270915;24;20059;-83
2023/07/30 10:42:22;;;;;;;2.20;1.90;;;;;;;;;;9893001;29;20039;-84
2023/07/30 10:53:01;;;;;;;3.90;2.10;;;;;;;;;;9891831;29;20055;-85
2023/07/30 11:04:10;;;;;;;3.08;2.20;;;;;;;;;;9856913;30;20040;-85
2023/07/30 11:09:42;;;;;;;3.50;2.13;;;;;;;;;;9832121;30;20069;-84
2023/07/30 11:14:52;;;;;;;2.72;2.17;;;;;;;;;;9837299;30;20130;-84
2023/07/30 11:25:32;;;;;;;3.65;2.00;;;;;;;;;;9823965;30;20205;-84
2023/07/30 11:47:30;;;;;;;3.50;2.17;;;;;;;;;;9934897;29;20754;-83
2023/07/30 11:52:31;;;;;;;2.22;1.92;;;;;;;;;;9935234;29;20095;-83
2023/07/30 11:57:36;;;;;;;2.33;1.98;;;;;;;;;;9936199;29;20051;-84
2023/07/30 12:13:29;;;;;;;2.85;2.38;;;;;;;;;;10688643;24;20069;-84
2023/07/30 12:18:30;;;;;;;3.78;2.10;;;;;;;;;;9974809;29;20083;-84
2023/07/30 12:23:31;;;;;;;2.72;2.17;;;;;;;;;;9962899;29;20045;-84
2023/07/30 12:28:34;;;;;;;3.35;2.20;;;;;;;;;;9965043;29;20414;-85
2023/07/30 12:33:35;;;;;;;2.85;2.17;;;;;;;;;;9954307;29;20058;-84
2023/07/30 12:38:35;;;;;;;2.63;2.22;;;;;;;;;;9954905;29;20210;-83
2023/07/30 12:43:36;;;;;;;2.55;2.35;;;;;;;;;;9966406;29;20111;-84
2023/07/30 12:48:38;;;;;;;2.13;1.75;;;;;;;;;;9952283;29;20041;-86
2023/07/30 12:53:45;;;;;;;2.00;1.80;;;;;;;;;;9958999;29;20049;-88
2023/07/30 12:58:46;;;;;;;2.00;1.80;;;;;;;;;;9929076;29;20777;-83
2023/07/30 13:03:48;;;;;;;3.22;1.88;;;;;;;;;;9949966;29;20030;-84
2023/07/30 13:08:49;;;;;;;2.95;2.10;;;;;;;;;;9939801;29;20042;-83
2023/07/30 13:13:50;;;;;;;2.50;2.13;;;;;;;;;;9972483;29;20067;-83
2023/07/30 13:18:58;;;;;;;2.47;2.15;;;;;;;;;;10002090;29;20049;-85
2023/07/30 13:23:59;;;;;;;4.32;2.28;;;;;;;;;;10000414;29;20483;-83
2023/07/30 13:29:00;;;;;;;2.05;1.75;;;;;;;;;;9990072;29;20031;-84
2023/07/30 13:34:01;;;;;;;3.30;1.92;;;;;;;;;;10000821;29;20044;-84
2023/07/30 13:39:02;;;;;;;3.20;2.33;;;;;;;;;;10002623;29;20790;-83
2023/07/30 13:44:03;;;;;;;2.50;2.10;;;;;;;;;;9972006;29;20038;-83
2023/07/30 13:49:34;;;;;;;2.17;1.85;;;;;;;;;;9982999;29;20049;-84
2023/07/30 13:55:04;;;;;;;5.95;2.53;;;;;;;;;;9981707;29;20506;-84
2023/07/30 14:00:39;;;;;;;2.45;2.10;;;;;;;;;;9979049;29;20057;-84
2023/07/30 14:05:43;;;;;;;3.97;1.93;;;;;;;;;;9999200;29;20037;-84
2023/07/30 14:10:48;;;;;;;2.00;1.77;;;;;;;;;;9977030;29;20339;-84
2023/07/30 14:38:42;;;;;;;3.15;2.13;;;;;;;;;;9966790;29;20497;-85
2023/07/30 14:43:43;;;;;;;4.13;1.80;;;;;;;;;;9947055;29;20042;-85
2023/07/30 14:48:45;;;;;;;3.08;1.90;;;;;;;;;;9947436;29;20058;-83
2023/07/30 14:53:46;;;;;;;3.17;2.10;;;;;;;;;;9958148;29;20042;-83
2023/07/30 14:58:47;;;;;;;3.47;1.85;;;;;;;;;;9948553;29;20055;-83
2023/07/30 15:03:48;;;;;;;2.20;1.80;;;;;;;;;;9937908;29;20411;-82
2023/07/30 15:08:50;;;;;;;2.67;1.92;;;;;;;;;;9938097;29;20450;-85
2023/07/30 15:13:51;;;;;;;1.92;1.75;;;;;;;;;;9978532;29;20046;-82
2023/07/30 15:18:53;;;;;;;1.95;1.65;;;;;;;;;;9994455;29;20050;-83
2023/07/30 15:23:54;;;;;;;3.60;1.92;;;;;;;;;;9970031;29;20026;-83
2023/07/30 15:28:55;;;;;;;3.90;1.83;;;;;;;;;;9990151;29;20142;-82
2023/07/30 15:33:56;;;;;;;2.58;1.92;;;;;;;;;;9999125;29;20046;-83
2023/07/30 15:38:57;;;;;;;5.63;2.40;;;;;;;;;;9971867;29;20486;-83
2023/07/30 15:43:58;;;;;;;2.83;2.40;;;;;;;;;;9997123;29;20113;-83
2023/07/30 15:49:00;;;;;;;3.72;2.00;;;;;;;;;;9987698;29;20034;-83
2023/07/30 15:54:01;;;;;;;4.97;2.08;;;;;;;;;;9987912;29;20047;-82
2023/07/30 16:10:40;;;;;;;3.60;2.10;;;;;;;;;;9989849;29;20053;-82
2023/07/30 16:15:41;;;;;;;3.22;2.10;;;;;;;;;;9993184;29;20057;-84
2023/07/30 16:20:42;;;;;;;3.30;1.83;;;;;;;;;;9960284;29;20122;-81
2023/07/30 16:25:43;;;;;;;1.95;1.77;;;;;;;;;;9970475;29;20121;-85
2023/07/30 16:31:06;;;;;;;2.97;2.00;;;;;;;;;;9978900;29;20046;-85
2023/07/30 16:47:02;;;;;;;4.38;2.60;;;;;;;;;;10013991;29;20037;-82
2023/07/30 16:52:03;;;;;;;3.88;2.50;;;;;;;;;;10020480;29;20053;-83
2023/07/30 16:57:04;;;;;;;4.57;2.90;;;;;;;;;;10005728;29;20042;-83
2023/07/30 17:02:05;;;;;;;5.82;3.97;;;;;;;;;;10006992;29;20061;-86
2023/07/30 17:07:06;;;;;;;7.05;3.38;;;;;;;;;;9991854;29;20033;-83
2023/07/30 17:12:08;;;;;;;7.35;3.05;;;;;;;;;;9984255;29;20115;-84
2023/07/30 17:17:09;;;;;;;4.25;2.75;;;;;;;;;;10005701;29;20041;-82
2023/07/30 17:22:10;;;;;;;5.30;2.90;;;;;;;;;;9968889;29;20075;-83
2023/07/30 17:27:15;;;;;;;2.97;2.35;;;;;;;;;;9968630;29;20059;-83
2023/07/30 17:32:16;;;;;;;2.50;2.15;;;;;;;;;;9966262;29;20089;-82
2023/07/30 17:37:17;;;;;;;3.42;2.05;;;;;;;;;;9952415;29;20091;-83
2023/07/30 17:42:18;;;;;;;2.80;2.10;;;;;;;;;;9966718;29;20511;-83
2023/07/30 17:47:20;;;;;;;4.07;2.63;;;;;;;;;;9951560;29;20038;-82
2023/07/30 17:52:21;;;;;;;3.30;2.45;;;;;;;;;;9965867;29;20077;-82
2023/07/30 17:57:22;;;;;;;3.97;2.30;;;;;;;;;;9957837;29;20034;-82
2023/07/30 18:02:26;;;;;;;3.72;2.20;;;;;;;;;;9968627;29;21609;-82
2023/07/30 18:07:30;;;;;;;3.88;2.92;;;;;;;;;;9947391;29;20437;-84
2023/07/30 18:12:57;;;;;;;4.03;2.40;;;;;;;;;;9951343;29;20042;-83
2023/07/30 18:18:03;;;;;;;3.55;2.22;;;;;;;;;;9953599;29;20034;-83
2023/07/30 18:23:04;;;;;;;3.00;2.10;;;;;;;;;;9950606;29;20042;-83
2023/07/30 18:28:05;;;;;;;7.78;2.58;;;;;;;;;;9959908;29;20129;-84
2023/07/30 18:33:06;;;;;;;4.78;3.20;;;;;;;;;;9957023;29;20266;-83
2023/07/30 18:38:08;;;;;;;11.95;4.05;;;;;;;;;;9953137;29;20768;-83
2023/07/30 18:43:09;;;;;;;8.20;4.18;;;;;;;;;;9958058;29;20057;-85
2023/07/30 18:48:28;;;;;;;10.82;4.35;;;;;;;;;;9987609;24;20395;-85
2023/07/30 18:53:30;;;;;;;7.35;4.00;;;;;;;;;;9994206;29;20038;-84
2023/07/30 18:58:31;;;;;;;6.32;3.92;;;;;;;;;;9995163;29;20030;-83
2023/07/30 19:03:35;;;;;;;6.25;4.00;;;;;;;;;;9994920;29;20033;-83
2023/07/30 19:08:37;;;;;;;6.80;4.07;;;;;;;;;;9995013;29;20578;-83
2023/07/30 19:14:03;;;;;;;8.88;4.20;;;;;;;;;;9993705;29;20046;-85
2023/07/30 19:19:04;;;;;;;10.52;4.20;;;;;;;;;;9989708;29;20061;-84
2023/07/30 19:40:50;;;;;;;10.95;4.72;;;;;;;;;;10352431;24;20070;-83
2023/07/30 19:51:46;;;;;;;12.95;5.97;;;;;;;;;;9882740;29;20062;-85
2023/07/30 19:56:47;;;;;;;9.30;5.82;;;;;;;;;;10008817;29;20387;-83
2023/07/30 20:02:07;;;;;;;11.98;5.40;;;;;;;;;;10009158;29;20065;-84
2023/07/30 20:07:45;;;;;;;9.02;5.40;;;;;;;;;;9993693;29;20033;-83
2023/07/30 20:13:13;;;;;;;7.45;5.32;;;;;;;;;;9991050;29;20049;-83
2023/07/30 20:29:55;;;;;;;7.40;4.45;;;;;;;;;;9957198;29;20109;-83
2023/07/30 20:40:34;;;;;;;6.30;4.40;;;;;;;;;;9995272;29;20065;-84
2023/07/30 20:45:35;;;;;;;6.28;4.97;;;;;;;;;;10002274;29;20037;-83
2023/07/30 20:50:37;;;;;;;8.32;5.65;;;;;;;;;;9999016;29;20604;-82
2023/07/30 20:55:38;;;;;;;14.68;9.77;;;;;;;;;;10005996;29;20680;-83
2023/07/30 21:00:39;;;;;;;16.40;10.90;;;;;;;;;;9990987;29;20036;-83
2023/07/30 21:05:40;;;;;;;22.95;13.90;;;;;;;;;;10006031;29;20078;-82
2023/07/30 21:10:41;;;;;;;31.20;21.33;;;;;;;;;;10003949;29;20427;-82
2023/07/30 21:15:42;;;;;;;40.88;28.05;;;;;;;;;;9992150;29;20038;-84
2023/07/30 21:20:43;;;;;;;42.50;27.48;;;;;;;;;;10005388;29;20034;-84
2023/07/30 21:25:44;;;;;;;40.78;25.05;;;;;;;;;;9985735;29;20042;-82
2023/07/30 21:30:45;;;;;;;33.65;21.40;;;;;;;;;;10001230;29;20052;-83
2023/07/30 21:35:46;;;;;;;29.75;20.67;;;;;;;;;;9998131;29;20023;-82
2023/07/30 21:40:47;;;;;;;30.75;20.05;;;;;;;;;;10001343;29;20288;-84
2023/07/30 21:45:52;;;;;;;36.42;22.83;;;;;;;;;;10001742;29;20038;-83
2023/07/30 21:50:59;;;;;;;27.10;16.63;;;;;;;;;;10006148;29;20053;-83
2023/07/30 21:56:02;;;;;;;21.85;12.85;;;;;;;;;;10003807;29;20038;-83
2023/07/30 22:01:03;;;;;;;14.55;9.05;;;;;;;;;;9995350;29;20432;-82
2023/07/30 22:06:04;;;;;;;13.30;7.22;;;;;;;;;;10004318;29;20649;-84
2023/07/30 22:11:05;;;;;;;9.20;5.82;;;;;;;;;;10001673;29;20033;-83
2023/07/30 22:16:06;;;;;;;9.63;6.05;;;;;;;;;;9987445;29;20033;-84
2023/07/30 22:21:08;;;;;;;9.63;6.18;;;;;;;;;;9993740;29;20041;-83
2023/07/30 22:26:09;;;;;;;8.57;5.13;;;;;;;;;;9995810;29;20721;-83
2023/07/30 22:31:10;;;;;;;8.32;5.05;;;;;;;;;;10007820;29;20034;-83
2023/07/30 22:36:11;;;;;;;8.88;5.60;;;;;;;;;;10008359;29;20042;-83
2023/07/30 22:41:12;;;;;;;10.35;6.22;;;;;;;;;;10001803;29;20133;-83
2023/07/30 22:46:13;;;;;;;12.27;7.25;;;;;;;;;;10006655;29;20050;-83
2023/07/30 22:51:14;;;;;;;9.55;5.97;;;;;;;;;;9998400;29;20673;-85
2023/07/30 22:56:15;;;;;;;11.82;7.00;;;;;;;;;;10005697;29;20038;-83
2023/07/30 23:01:17;;;;;;;9.88;5.75;;;;;;;;;;10003599;29;20081;-82
2023/07/30 23:06:18;;;;;;;8.52;5.70;;;;;;;;;;10000094;29;20764;-83
2023/07/30 23:11:19;;;;;;;12.27;6.32;;;;;;;;;;10006579;29;20088;-84
2023/07/30 23:16:20;;;;;;;11.15;6.55;;;;;;;;;;10006895;29;20030;-83
2023/07/30 23:21:21;;;;;;;9.82;5.90;;;;;;;;;;9983769;29;20072;-83
2023/07/30 23:26:22;;;;;;;8.38;5.88;;;;;;;;;;9997191;29;20059;-85
2023/07/30 23:31:23;;;;;;;8.20;5.78;;;;;;;;;;9987343;29;20045;-83
2023/07/30 23:36:24;;;;;;;7.00;5.45;;;;;;;;;;10005995;29;20038;-82
2023/07/30 23:41:25;;;;;;;7.22;5.50;;;;;;;;;;9994110;29;20062;-81
2023/07/30 23:46:26;;;;;;;9.88;5.20;;;;;;;;;;10008039;29;20495;-81
2023/07/30 23:51:29;;;;;;;7.63;5.68;;;;;;;;;;10011401;29;20063;-83
2023/07/30 23:56:30;;;;;;;8.57;6.07;;;;;;;;;;10000137;29;20038;-83
